createdAt,value
2019-04-05T00:01:22.047Z,99.90
2019-04-05T00:03:55.022Z,99.90
2019-04-05T00:06:27.792Z,99.90
2019-04-05T00:09:00.976Z,99.90
2019-04-05T00:11:33.785Z,99.90
2019-04-05T00:14:06.581Z,99.90
2019-04-05T00:16:41.166Z,99.90
2019-04-05T00:19:13.908Z,99.90
2019-04-05T00:21:46.782Z,99.90
2019-04-05T00:24:19.550Z,99.90
2019-04-05T00:26:52.646Z,99.90
2019-04-05T00:29:25.689Z,99.90
2019-04-05T00:31:58.721Z,99.90
2019-04-05T00:34:31.657Z,99.90
2019-04-05T00:37:04.508Z,99.90
2019-04-05T00:39:37.578Z,99.90
2019-04-05T00:42:10.403Z,99.90
2019-04-05T00:44:43.434Z,99.90
2019-04-05T00:47:16.204Z,99.90
2019-04-05T00:49:48.991Z,99.90
2019-04-05T00:52:21.968Z,99.90
2019-04-05T00:54:54.957Z,99.90
2019-04-05T00:57:27.664Z,99.90
2019-04-05T01:00:00.802Z,99.90
2019-04-05T01:02:33.808Z,99.90
2019-04-05T01:05:06.780Z,99.90
2019-04-05T01:07:39.617Z,99.90
2019-04-05T01:10:13.163Z,99.90
2019-04-05T01:12:45.992Z,99.90
2019-04-05T01:15:18.818Z,99.90
2019-04-05T01:17:52.101Z,99.90
2019-04-05T01:20:28.047Z,99.90
2019-04-05T01:23:01.415Z,99.90
2019-04-05T01:25:35.933Z,99.90
2019-04-05T01:28:10.317Z,99.90
2019-04-05T01:30:43.064Z,99.90
2019-04-05T01:33:16.180Z,99.90
2019-04-05T01:35:49.039Z,99.90
2019-04-05T01:38:22.111Z,99.90
2019-04-05T01:40:57.034Z,99.90
2019-04-05T01:43:29.971Z,99.90
2019-04-05T01:46:03.184Z,99.90
2019-04-05T01:48:35.969Z,99.90
2019-04-05T01:51:08.741Z,99.90
2019-04-05T01:53:41.595Z,99.90
2019-04-05T01:56:14.620Z,99.90
2019-04-05T01:58:47.750Z,99.90
2019-04-05T02:01:20.654Z,99.90
2019-04-05T02:03:53.390Z,99.90
2019-04-05T02:06:26.727Z,99.90
2019-04-05T02:08:59.522Z,99.90
2019-04-05T02:11:32.483Z,99.90
2019-04-05T02:14:05.528Z,99.90
2019-04-05T02:16:38.894Z,99.90
2019-04-05T02:19:11.804Z,99.90
2019-04-05T02:21:45.044Z,99.90
2019-04-05T02:24:17.947Z,99.90
2019-04-05T02:26:50.817Z,99.90
2019-04-05T02:29:23.547Z,99.90
2019-04-05T02:31:56.685Z,99.90
2019-04-05T02:34:29.658Z,99.90
2019-04-05T02:37:03.576Z,99.90
2019-04-05T02:39:36.736Z,99.90
2019-04-05T02:42:11.467Z,99.90
2019-04-05T02:44:46.039Z,99.90
2019-04-05T02:47:20.517Z,99.90
2019-04-05T02:49:56.022Z,99.90
2019-04-05T02:52:30.046Z,99.90
2019-04-05T02:55:03.419Z,99.90
2019-04-05T02:57:36.423Z,99.90
2019-04-05T03:00:09.300Z,99.90
2019-04-05T03:02:42.565Z,99.90
2019-04-05T03:05:15.575Z,99.90
2019-04-05T03:07:49.916Z,99.90
2019-04-05T03:11:03.782Z,99.90
2019-04-05T03:13:41.230Z,99.90
2019-04-05T03:16:18.821Z,99.90
2019-04-05T03:19:02.340Z,99.90
2019-04-05T03:21:38.823Z,99.90
2019-04-05T03:24:17.006Z,99.90
2019-04-05T03:27:01.599Z,99.90
2019-04-05T03:29:34.431Z,99.90
2019-04-05T03:32:07.998Z,99.90
2019-04-05T03:34:41.081Z,99.90
2019-04-05T03:37:15.642Z,99.90
2019-04-05T03:39:48.539Z,99.90
2019-04-05T03:42:21.959Z,99.90
2019-04-05T03:44:55.099Z,99.90
2019-04-05T03:47:27.904Z,99.90
2019-04-05T03:50:00.990Z,99.90
2019-04-05T03:52:33.875Z,99.90
2019-04-05T03:55:07.114Z,99.90
2019-04-05T03:57:40.089Z,99.90
2019-04-05T04:00:13.163Z,99.90
2019-04-05T04:02:46.191Z,99.90
2019-04-05T04:05:19.507Z,99.90
2019-04-05T04:07:52.547Z,99.90
2019-04-05T04:10:27.194Z,99.90
2019-04-05T04:13:00.403Z,99.90
2019-04-05T04:15:33.643Z,99.90
2019-04-05T04:18:06.727Z,99.90
2019-04-05T04:20:47.301Z,99.90
2019-04-05T04:23:24.804Z,99.90
2019-04-05T04:25:58.047Z,99.90
2019-04-05T04:28:31.685Z,99.90
2019-04-05T04:31:04.559Z,99.90
2019-04-05T04:33:37.684Z,99.90
2019-04-05T04:36:13.053Z,99.90
2019-04-05T04:38:45.475Z,99.90
2019-04-05T04:41:18.708Z,99.90
2019-04-05T04:43:51.981Z,99.90
2019-04-05T04:46:24.940Z,99.90
2019-04-05T04:48:58.067Z,99.90
2019-04-05T04:51:32.079Z,99.90
2019-04-05T04:54:05.256Z,99.90
2019-04-05T04:56:38.833Z,99.90
2019-04-05T04:59:11.753Z,99.90
2019-04-05T05:01:44.812Z,99.90
2019-04-05T05:04:17.981Z,99.90
2019-04-05T05:06:51.024Z,99.90
2019-04-05T05:09:24.021Z,99.90
2019-04-05T05:11:57.067Z,99.90
2019-04-05T05:14:30.791Z,99.90
2019-04-05T05:17:04.006Z,99.90
2019-04-05T05:19:37.183Z,99.90
2019-04-05T05:22:10.171Z,99.90
2019-04-05T05:24:42.942Z,99.90
2019-04-05T05:27:16.066Z,99.90
2019-04-05T05:29:49.195Z,99.90
2019-04-05T05:32:22.338Z,99.90
2019-04-05T05:35:01.930Z,99.90
2019-04-05T05:37:32.822Z,99.90
2019-04-05T05:40:06.918Z,99.90
2019-04-05T05:42:40.031Z,99.90
2019-04-05T05:45:13.202Z,99.90
2019-04-05T05:47:52.081Z,99.90
2019-04-05T05:50:20.867Z,99.90
2019-04-05T05:52:54.113Z,99.90
2019-04-05T05:55:29.842Z,99.90
2019-04-05T05:58:01.972Z,99.90
2019-04-05T06:00:34.990Z,99.90
2019-04-05T06:03:10.780Z,99.90
2019-04-05T06:05:42.626Z,99.90
2019-04-05T06:08:15.381Z,99.90
2019-04-05T06:10:48.549Z,99.90
2019-04-05T06:13:21.507Z,99.90
2019-04-05T06:15:54.631Z,99.90
2019-04-05T06:18:27.346Z,99.90
2019-04-05T06:21:03.328Z,99.90
2019-04-05T06:23:43.038Z,99.90
2019-04-05T06:26:16.121Z,99.90
2019-04-05T06:28:48.955Z,99.90
2019-04-05T06:31:22.269Z,99.90
2019-04-05T06:33:55.119Z,99.90
2019-04-05T06:36:28.069Z,99.90
2019-04-05T06:39:01.299Z,99.90
2019-04-05T06:41:35.893Z,99.90
2019-04-05T06:44:08.863Z,99.90
2019-04-05T06:46:41.848Z,99.90
2019-04-05T06:49:14.584Z,99.90
2019-04-05T06:51:47.388Z,99.90
2019-04-05T06:54:20.409Z,99.90
2019-04-05T06:56:53.376Z,99.90
2019-04-05T06:59:26.783Z,99.90
2019-04-05T07:01:59.831Z,99.90
2019-04-05T07:04:32.691Z,99.90
2019-04-05T07:07:05.559Z,99.90
2019-04-05T07:09:38.432Z,99.90
2019-04-05T07:12:11.266Z,99.90
2019-04-05T07:14:44.167Z,99.90
2019-04-05T07:17:17.477Z,99.90
2019-04-05T07:19:50.684Z,99.90
2019-04-05T07:22:37.040Z,99.90
2019-04-05T07:24:58.463Z,99.90
2019-04-05T07:27:31.387Z,99.90
2019-04-05T07:30:04.749Z,99.90
2019-04-05T07:32:37.762Z,99.90
2019-04-05T07:35:10.613Z,99.90
2019-04-05T07:37:43.898Z,99.90
2019-04-05T07:40:17.126Z,99.90
2019-04-05T07:42:50.343Z,99.90
2019-04-05T07:45:23.514Z,99.90
2019-04-05T07:47:56.497Z,99.90
2019-04-05T07:50:29.234Z,99.90
2019-04-05T07:53:02.278Z,99.90
2019-04-05T07:55:36.047Z,99.90
2019-04-05T07:58:08.897Z,99.90
2019-04-05T08:00:53.163Z,99.90
2019-04-05T08:03:26.094Z,99.90
2019-04-05T08:05:59.002Z,99.90
2019-04-05T08:08:48.279Z,99.90
2019-04-05T08:11:23.057Z,99.90
2019-04-05T08:13:59.255Z,99.90
2019-04-05T08:16:32.152Z,99.90
2019-04-05T08:19:05.294Z,99.90
2019-04-05T08:21:39.034Z,99.90
2019-04-05T08:24:12.082Z,99.90
2019-04-05T08:26:44.950Z,99.90
2019-04-05T08:29:18.015Z,99.90
2019-04-05T08:31:50.772Z,99.90
2019-04-05T08:34:23.574Z,99.90
2019-04-05T08:36:56.605Z,99.90
2019-04-05T08:39:29.490Z,99.90
2019-04-05T08:42:02.328Z,99.90
2019-04-05T08:44:35.122Z,99.90
2019-04-05T08:47:07.926Z,99.90
2019-04-05T08:49:41.109Z,99.90
2019-04-05T08:52:13.878Z,99.90
2019-04-05T08:54:47.119Z,99.90
2019-04-05T08:57:20.038Z,99.90
2019-04-05T08:59:53.443Z,99.90
2019-04-05T09:02:26.587Z,99.90
2019-04-05T09:04:59.815Z,99.90
2019-04-05T09:07:32.880Z,99.90
2019-04-05T09:10:06.540Z,99.90
2019-04-05T09:12:39.553Z,99.90
2019-04-05T09:15:12.814Z,99.90
2019-04-05T09:17:45.860Z,99.90
2019-04-05T09:20:18.742Z,99.90
2019-04-05T09:22:51.583Z,99.90
2019-04-05T09:25:24.619Z,99.90
2019-04-05T09:27:57.486Z,99.90
2019-04-05T09:30:30.281Z,99.90
2019-04-05T09:33:04.009Z,99.90
2019-04-05T09:35:36.808Z,99.90
2019-04-05T09:38:09.898Z,99.90
2019-04-05T09:40:43.425Z,99.90
2019-04-05T09:43:16.539Z,99.90
2019-04-05T09:45:49.786Z,99.90
2019-04-05T09:48:22.771Z,99.90
2019-04-05T09:50:55.870Z,99.90
2019-04-05T09:53:28.750Z,99.90
2019-04-05T09:56:01.872Z,99.70
2019-04-05T09:58:34.760Z,99.90
2019-04-05T10:01:07.690Z,99.90
2019-04-05T10:03:40.740Z,99.90
2019-04-05T10:06:13.504Z,99.90
2019-04-05T10:08:46.496Z,99.70
2019-04-05T10:11:19.610Z,99.50
2019-04-05T10:13:52.697Z,99.30
2019-04-05T10:16:25.422Z,99.70
2019-04-05T10:19:11.274Z,99.70
2019-04-05T10:21:44.546Z,98.80
2019-04-05T10:24:17.526Z,98.50
2019-04-05T10:26:50.534Z,98.90
2019-04-05T10:29:23.525Z,98.20
2019-04-05T10:31:56.246Z,98.90
2019-04-05T10:34:29.012Z,99.50
2019-04-05T10:37:01.840Z,99.90
2019-04-05T10:39:36.021Z,99.60
2019-04-05T10:42:16.871Z,99.90
2019-04-05T10:44:49.839Z,99.70
2019-04-05T10:47:22.787Z,99.70
2019-04-05T10:50:03.145Z,99.40
2019-04-05T10:52:31.611Z,99.90
2019-04-05T10:55:06.422Z,99.90
2019-04-05T10:57:39.326Z,99.90
2019-04-05T11:00:14.503Z,99.90
2019-04-05T11:02:47.475Z,99.90
2019-04-05T11:05:20.558Z,99.90
2019-04-05T11:07:53.537Z,99.90
2019-04-05T11:10:26.510Z,99.90
2019-04-05T11:12:59.472Z,99.90
2019-04-05T11:15:33.911Z,99.90
2019-04-05T11:18:06.876Z,99.70
2019-04-05T11:20:40.102Z,99.40
2019-04-05T11:23:12.850Z,98.80
2019-04-05T11:25:45.792Z,98.40
2019-04-05T11:28:18.591Z,98.70
2019-04-05T11:30:51.627Z,99.10
2019-04-05T11:33:24.430Z,99.60
2019-04-05T11:35:58.028Z,99.30
2019-04-05T11:38:31.403Z,99.60
2019-04-05T11:41:04.870Z,99.10
2019-04-05T11:43:39.567Z,99.40
2019-04-05T11:46:13.045Z,99.80
2019-04-05T11:48:47.452Z,99.90
2019-04-05T11:51:20.536Z,99.90
2019-04-05T11:53:53.417Z,99.90
2019-04-05T11:56:26.546Z,99.70
2019-04-05T11:59:03.521Z,99.70
2019-04-05T12:01:47.797Z,99.90
2019-04-05T12:04:21.137Z,99.90
2019-04-05T12:06:54.188Z,99.90
2019-04-05T12:09:27.159Z,99.90
2019-04-05T12:12:00.554Z,99.90
2019-04-05T12:14:34.506Z,99.90
2019-04-05T12:17:09.728Z,99.90
2019-04-05T12:19:42.898Z,99.90
2019-04-05T12:22:15.949Z,99.90
2019-04-05T12:24:49.123Z,99.90
2019-04-05T12:27:22.091Z,99.90
2019-04-05T12:29:54.977Z,99.90
2019-04-05T12:32:34.587Z,99.90
2019-04-05T12:35:08.013Z,99.90
2019-04-05T12:37:49.438Z,99.90
2019-04-05T12:40:15.119Z,99.90
2019-04-05T12:42:48.005Z,99.90
2019-04-05T12:45:20.771Z,99.90
2019-04-05T12:47:53.686Z,99.90
2019-04-05T12:50:26.726Z,99.90
2019-04-05T12:52:59.716Z,99.90
2019-04-05T12:55:33.278Z,99.90
2019-04-05T12:58:06.286Z,99.90
2019-04-05T13:00:39.186Z,99.90
2019-04-05T13:03:12.302Z,99.90
2019-04-05T13:05:45.299Z,99.90
2019-04-05T13:08:18.217Z,99.90
2019-04-05T13:10:51.376Z,99.90
2019-04-05T13:13:26.548Z,99.90
2019-04-05T13:15:59.593Z,99.90
2019-04-05T13:18:32.643Z,99.90
2019-04-05T13:21:14.569Z,99.90
2019-04-05T13:23:40.451Z,99.90
2019-04-05T13:26:13.419Z,99.90
2019-04-05T13:28:48.447Z,99.90
2019-04-05T13:31:21.327Z,99.90
2019-04-05T13:33:55.221Z,99.90
2019-04-05T13:36:28.564Z,99.90
2019-04-05T13:39:01.472Z,99.90
2019-04-05T13:41:36.288Z,99.90
2019-04-05T13:44:09.299Z,99.90
2019-04-05T13:46:42.835Z,99.90
2019-04-05T13:49:16.003Z,99.90
2019-04-05T13:51:49.026Z,99.90
2019-04-05T13:54:22.100Z,99.90
2019-04-05T13:56:54.996Z,99.90
2019-04-05T13:59:28.139Z,99.90
2019-04-05T14:02:06.223Z,99.90
2019-04-05T14:04:36.069Z,99.90
2019-04-05T14:07:08.859Z,99.90
2019-04-05T14:09:41.819Z,99.90
2019-04-05T14:12:14.663Z,99.90
2019-04-05T14:14:51.020Z,99.90
2019-04-05T14:17:22.081Z,99.90
2019-04-05T14:19:56.536Z,99.90
2019-04-05T14:22:29.442Z,99.90
2019-04-05T14:25:02.865Z,99.90
2019-04-05T14:27:35.676Z,99.90
2019-04-05T14:30:08.820Z,99.90
2019-04-05T14:32:42.015Z,99.90
2019-04-05T14:35:15.101Z,99.90
2019-04-05T14:37:48.101Z,99.90
2019-04-05T14:40:21.094Z,99.90
2019-04-05T14:42:53.984Z,99.90
2019-04-05T14:45:27.210Z,99.90
2019-04-05T14:48:00.280Z,99.90
2019-04-05T14:50:34.470Z,99.90
2019-04-05T14:53:07.313Z,99.90
2019-04-05T14:55:40.225Z,99.90
2019-04-05T14:58:13.125Z,99.90
2019-04-05T15:00:47.252Z,99.90
2019-04-05T15:03:20.835Z,99.90
2019-04-05T15:05:53.776Z,99.90
2019-04-05T15:08:26.758Z,99.90
2019-04-05T15:10:59.689Z,99.90
2019-04-05T15:13:32.606Z,99.90
2019-04-05T15:16:05.559Z,99.90
2019-04-05T15:18:38.426Z,99.90
2019-04-05T15:21:12.439Z,99.90
2019-04-05T15:23:46.274Z,99.90
2019-04-05T15:26:21.373Z,99.90
2019-04-05T15:28:55.194Z,99.90
2019-04-05T15:31:28.748Z,99.90
2019-04-05T15:34:01.705Z,99.90
2019-04-05T15:36:34.730Z,99.90
2019-04-05T15:39:08.752Z,99.90
2019-04-05T15:41:41.477Z,99.90
2019-04-05T15:44:15.880Z,99.90
2019-04-05T15:46:49.671Z,99.90
2019-04-05T15:49:43.864Z,99.90
2019-04-05T15:52:18.895Z,99.90
2019-04-05T15:54:51.553Z,99.90
2019-04-05T15:57:24.835Z,99.90
2019-04-05T15:59:57.587Z,99.90
2019-04-05T16:02:33.013Z,99.90
2019-04-05T16:05:06.492Z,99.90
2019-04-05T16:07:40.445Z,99.90
2019-04-05T16:10:13.461Z,99.90
2019-04-05T16:12:47.566Z,99.90
2019-04-05T16:15:20.511Z,99.90
2019-04-05T16:17:53.929Z,99.90
2019-04-05T16:20:26.932Z,99.90
2019-04-05T16:22:59.904Z,99.90
2019-04-05T16:25:32.978Z,99.90
2019-04-05T16:28:06.368Z,99.90
2019-04-05T16:30:39.857Z,99.90
2019-04-05T16:33:12.905Z,99.90
2019-04-05T16:35:46.662Z,99.90
2019-04-05T16:38:19.540Z,99.90
2019-04-05T16:40:52.801Z,99.90
2019-04-05T16:43:25.795Z,99.90
2019-04-05T16:45:58.641Z,99.90
2019-04-05T16:48:31.546Z,99.90
2019-04-05T16:51:05.177Z,99.90
2019-04-05T16:53:58.811Z,99.90
2019-04-05T16:56:31.631Z,99.90
2019-04-05T16:59:05.042Z,99.90
2019-04-05T17:01:38.929Z,99.90
2019-04-05T17:04:11.758Z,99.90
2019-04-05T17:06:45.386Z,99.90
2019-04-05T17:09:18.563Z,99.90
2019-04-05T17:11:51.475Z,99.90
2019-04-05T17:14:24.513Z,99.90
2019-04-05T17:16:57.501Z,99.90
2019-04-05T17:19:30.555Z,99.90
2019-04-05T17:22:03.522Z,99.90
2019-04-05T17:24:40.153Z,99.90
2019-04-05T17:27:13.085Z,99.90
2019-04-05T17:29:45.917Z,99.90
2019-04-05T17:32:19.217Z,99.90
2019-04-05T17:34:52.258Z,99.90
2019-04-05T17:37:26.682Z,99.90
2019-04-05T17:39:59.978Z,99.90
2019-04-05T17:42:34.805Z,99.90
2019-04-05T17:45:08.268Z,99.90
2019-04-05T17:47:41.281Z,99.90
2019-04-05T17:50:20.831Z,99.90
2019-04-05T17:52:53.657Z,99.90
2019-04-05T17:55:26.465Z,99.90
2019-04-05T17:58:01.611Z,99.90
2019-04-05T18:00:34.416Z,99.90
2019-04-05T18:03:07.494Z,99.90
2019-04-05T18:05:40.368Z,99.90
2019-04-05T18:08:13.191Z,99.90
2019-04-05T18:10:58.401Z,99.90
2019-04-05T18:13:31.542Z,99.90
2019-04-05T18:16:04.527Z,99.90
2019-04-05T18:18:37.497Z,99.90
2019-04-05T18:21:10.477Z,99.90
2019-04-05T18:23:43.550Z,99.90
2019-04-05T18:26:16.351Z,99.90
2019-04-05T18:28:49.723Z,99.90
2019-04-05T18:31:22.679Z,99.90
2019-04-05T18:33:55.598Z,99.90
2019-04-05T18:36:28.583Z,99.90
2019-04-05T18:39:01.557Z,99.90
2019-04-05T18:41:36.372Z,99.90
2019-04-05T18:44:09.622Z,99.90
2019-04-05T18:46:42.506Z,99.90
2019-04-05T18:49:15.758Z,99.90
2019-04-05T18:51:48.711Z,99.90
2019-04-05T18:54:21.507Z,99.90
2019-04-05T18:56:54.290Z,99.90
2019-04-05T18:59:27.431Z,99.90
2019-04-05T19:02:01.558Z,99.90
2019-04-05T19:04:34.792Z,99.90
2019-04-05T19:07:07.809Z,99.90
2019-04-05T19:09:41.078Z,99.90
2019-04-05T19:12:13.797Z,99.90
2019-04-05T19:14:46.738Z,99.90
2019-04-05T19:17:24.270Z,99.90
2019-04-05T19:19:54.329Z,99.90
2019-04-05T19:22:27.264Z,99.90
2019-04-05T19:25:00.114Z,99.90
2019-04-05T19:27:33.687Z,99.90
2019-04-05T19:50:46.238Z,99.90
2019-04-05T19:53:19.297Z,99.90
2019-04-05T19:55:52.244Z,99.90
2019-04-05T19:58:25.084Z,99.90
2019-04-05T20:00:59.262Z,99.90
2019-04-05T20:03:32.229Z,99.90
2019-04-05T20:06:05.222Z,99.90
2019-04-05T20:08:38.032Z,99.90
2019-04-05T20:11:11.073Z,99.90
2019-04-05T20:13:43.890Z,99.90
2019-04-05T20:16:16.693Z,99.90
2019-04-05T20:18:49.813Z,99.90
2019-04-05T20:21:23.674Z,99.90
2019-04-05T20:23:56.551Z,99.90
2019-04-05T20:26:29.922Z,99.90
2019-04-05T20:29:02.849Z,99.90
2019-04-05T20:31:36.007Z,99.90
2019-04-05T20:34:08.904Z,99.90
2019-04-05T20:36:41.860Z,99.90
2019-04-05T20:39:14.610Z,99.90
2019-04-05T20:41:47.514Z,99.90
2019-04-05T20:44:20.498Z,99.90
2019-04-05T20:46:53.549Z,99.90
2019-04-05T20:49:29.419Z,99.90
2019-04-05T20:52:02.418Z,99.90
2019-04-05T20:54:35.304Z,99.90
2019-04-05T20:57:08.318Z,99.90
2019-04-05T20:59:41.368Z,99.90
2019-04-05T21:02:14.290Z,99.90
2019-04-05T21:04:47.089Z,99.90
2019-04-05T21:07:19.958Z,99.90
2019-04-05T21:09:54.335Z,99.90
2019-04-05T21:12:27.484Z,99.90
2019-04-05T21:15:00.468Z,99.90
2019-04-05T21:17:36.270Z,99.90
2019-04-05T21:20:09.738Z,99.90
2019-04-05T21:22:42.710Z,99.90
2019-04-05T21:25:15.574Z,99.90
2019-04-05T21:27:50.075Z,99.90
2019-04-05T21:30:22.974Z,99.90
2019-04-05T21:32:55.912Z,99.90
2019-04-05T21:35:28.770Z,99.90
2019-04-05T21:38:01.865Z,99.90
2019-04-05T21:40:34.746Z,99.90
2019-04-05T21:43:07.544Z,99.90
2019-04-05T21:45:40.620Z,99.90
2019-04-05T21:48:13.513Z,99.90
2019-04-05T21:50:46.649Z,99.90
2019-04-05T21:53:19.643Z,99.90
2019-04-05T21:55:52.760Z,99.90
2019-04-05T21:58:26.018Z,99.90
2019-04-05T22:01:06.767Z,99.90
2019-04-05T22:03:39.954Z,99.90
2019-04-05T22:06:12.914Z,99.90
2019-04-05T22:08:45.915Z,99.90
2019-04-05T22:11:19.129Z,99.90
2019-04-05T22:13:52.109Z,99.90
2019-04-05T22:16:25.055Z,99.90
2019-04-05T22:18:58.070Z,99.90
2019-04-05T22:21:30.999Z,99.90
2019-04-05T22:24:03.751Z,99.90
2019-04-05T22:26:36.791Z,99.90
2019-04-05T22:29:09.830Z,99.90
2019-04-05T22:31:42.871Z,99.90
2019-04-05T22:34:15.635Z,99.90
2019-04-05T22:36:48.647Z,99.90
2019-04-05T22:39:21.707Z,99.90
2019-04-05T22:41:54.877Z,99.90
2019-04-05T22:44:37.595Z,99.90
2019-04-05T22:47:03.035Z,99.90
2019-04-05T22:49:36.232Z,99.90
2019-04-05T22:52:09.182Z,99.90
2019-04-05T22:54:42.331Z,99.90
2019-04-05T22:57:15.252Z,99.90
2019-04-05T22:59:48.026Z,99.90
2019-04-05T23:02:20.992Z,99.90
2019-04-05T23:04:53.836Z,99.90
2019-04-05T23:07:27.051Z,99.90
2019-04-05T23:09:59.878Z,99.90
2019-04-05T23:12:32.829Z,99.90
2019-04-05T23:15:06.945Z,99.90
2019-04-05T23:17:39.782Z,99.90
2019-04-05T23:20:12.986Z,99.90
2019-04-05T23:22:45.826Z,99.90
2019-04-05T23:25:22.113Z,99.90
2019-04-05T23:27:54.456Z,99.90
2019-04-05T23:30:28.474Z,99.90
2019-04-05T23:33:01.327Z,99.90
2019-04-05T23:35:34.135Z,99.90
2019-04-05T23:38:06.936Z,99.90
2019-04-05T23:40:39.795Z,99.90
2019-04-05T23:43:13.090Z,99.90
2019-04-05T23:45:45.883Z,99.90
2019-04-05T23:48:18.862Z,99.90
2019-04-05T23:50:51.991Z,99.90
2019-04-05T23:53:24.775Z,99.90
2019-04-05T23:55:57.536Z,99.90
2019-04-05T23:58:30.576Z,99.90
